KZ-0019 weather

Zakirovskiy Airport
Almaty, Almaty Region, Kazakhstan

Public forecast

Using degrees Celsius for public forecast. Weather courtesy of forecast.io.

METAR (pilot weather report)

Closest report is Almaty Airport, 5.8 nm (10.7 km) S. Retrieved 2019/03/25 15:30 UTC (3 minutes ago):

UAAA 251530Z 11002MPS 050V130 2100 FU FEW100 BKN200 10/02 Q1021 R88/65D TEMPO 1200 FU

TAF (pilot weather forecast)

Closest forecast is Almaty Airport, 5.8 nm (10.7 km) S. Retrieved 2019/03/25 12:18 UTC (3 hours ago):

TAF TAF UAAA 251100Z 2512/2612 04004MPS 3100 BR FU NSC TX18/2608Z TN02/2601Z TEMPO 2513/2522 16003MPS 0800 FG FU TEMPO 2522/2603 1600 BECMG 2605/2606 9999 NSW